Flight Track Log - Related Links

Times and Time Zones

All times are in EDT time to prevent confusion due to time zone crossing. See the FLG4202 flight status page for this flight to view local times or setup timezone preferences in your user account.

Time Position Orientation Groundspeed Altitude Reporting Facility
EDT Latitude Longitude Course Direction KTS MPH feet Rate Location/Type
Fri 12:55:57 PM 42.2036 -83.3556 56° Northeast 163 188 1,300  Level Cleveland Center
Fri 12:57:22 PM 42.1328 -83.3608 183° South 202 232 5,100 2,357 Climbing Cleveland Center
Fri 12:58:17 PM 42.0881 -83.3142 142° Southeast 289 333 6,800 1,868 Climbing Cleveland Center
Fri 12:59:00 PM 42.3139 -82.7638 75° East  Level FlightAware
Fri 01:00:00 PM 42.3303 -82.6138 82° East  Level FlightAware
Fri 01:00:09 PM 42.0989 -83.1103 86° East 321 369 10,300  Level Cleveland Center
Fri 01:01:00 PM 42.3572 -82.4690 56° Northeast  Level FlightAware
Fri 01:01:09 PM 42.1469 -83.0028 59° Northeast 327 376 12,800  Level Cleveland Center
Fri 01:02:09 PM 42.1933 -82.8869 62° Northeast 337 388 14,900 2,050 Climbing Cleveland Center
Fri 01:03:09 PM 42.2414 -82.7653 62° Northeast 348 400 16,900 1,700 Climbing Cleveland Center
Fri 01:04:09 PM 42.2917 -82.6433 61° Northeast 353 406 18,300 1,350 Climbing Cleveland Center
Fri 01:05:09 PM 42.3419 -82.5158 62° Northeast 363 418 19,600 1,350 Climbing Cleveland Center
Fri 01:06:09 PM 42.3650 -82.3706 78° East 374 430 21,000 1,250 Climbing Cleveland Center
Fri 01:07:09 PM 42.3569 -82.2100 94° East 396 456 22,100 950 Climbing Cleveland Center
Fri 01:08:09 PM 42.3528 -82.0667 92° East 416 479 22,900 950 Climbing Cleveland Center
Fri 01:09:09 PM 42.3464 -81.8978 93° East 436 502 24,000 1,000 Climbing Cleveland Center
Fri 01:10:09 PM 42.3378 -81.7292 94° East 445 512 24,900 850 Climbing Cleveland Center
Fri 01:11:09 PM 42.3269 -81.5550 95° East 456 525 25,700 900 Climbing Cleveland Center
Fri 01:12:09 PM 42.3178 -81.3667 94° East 461 531 26,700 1,050 Climbing Cleveland Center
Fri 01:13:09 PM 42.3106 -81.1897 93° East 461 531 27,800 1,050 Climbing Cleveland Center
Fri 01:14:09 PM 42.3011 -81.0128 94° East 461 531 28,800 600 Climbing Cleveland Center
Fri 01:15:09 PM 42.2911 -80.8358 94° East 466 536 29,000 100 Climbing Cleveland Center
Fri 01:16:09 PM 42.2831 -80.6506 93° East 476 548 29,000  Level Cleveland Center
Fri 01:17:09 PM 42.2725 -80.4653 94° East 490 564 29,000  Level Cleveland Center
Fri 01:18:09 PM 42.2619 -80.2803 94° East 495 570 29,000  Level Cleveland Center
Fri 01:19:09 PM 42.2528 -80.1006 94° East 495 570 29,000  Level Cleveland Center
Fri 01:20:09 PM 42.2436 -79.9408 94° East 488 562 29,000  Level Cleveland Center
Fri 01:21:09 PM 42.2300 -79.7617 96° East 477 549 29,000  Level Cleveland Center
Fri 01:22:09 PM 42.2183 -79.5822 95° East 477 549 29,000  Level Cleveland Center
Fri 01:23:09 PM 42.2061 -79.4058 95° East 477 549 29,000  Level Cleveland Center
Fri 01:24:09 PM 42.1958 -79.2239 94° East 477 549 29,000  Level Cleveland Center
Fri 01:25:09 PM 42.2103 -79.0469 84° East 484 557 29,000  Level Cleveland Center
Fri 01:26:09 PM 42.2686 -78.8911 63° Northeast 454 522 29,000  Level Cleveland Center
Fri 01:27:09 PM 42.3264 -78.7294 64° Northeast 459 528 29,000  Level Cleveland Center
Fri 01:28:09 PM 42.3822 -78.5706 65° Northeast 459 528 29,000  Level Cleveland Center
Fri 01:29:09 PM 42.4378 -78.4111 65° Northeast 464 534 29,000  Level Cleveland Center
Fri 01:30:09 PM 42.4908 -78.2517 66° East 464 534 29,000  Level Cleveland Center
Fri 01:31:09 PM 42.5458 -78.0889 65° Northeast 464 534 29,000 -200 Level Cleveland Center
Fri 01:32:09 PM 42.6006 -77.9289 65° Northeast 464 534 28,600 -900 Descending Cleveland Center
Fri 01:33:09 PM 42.6675 -77.7622 61° Northeast 464 534 27,200 -1,250 Descending Cleveland Center
Fri 01:34:09 PM 42.7458 -77.6428 48° Northeast 458 527 26,100 -650 Descending Cleveland Center
Fri 01:35:09 PM 42.8283 -77.5228 47° Northeast 447 514 25,900 -1,050 Descending Cleveland Center
Fri 01:36:09 PM 42.8911 -77.3864 58° Northeast 435 501 24,000 -2,000 Descending Cleveland Center
Fri 01:37:09 PM 42.9303 -77.2200 72° East 419 482 21,900 -2,056 Descending Cleveland Center
Fri 01:39:07 PM 42.9975 -76.9347 72° East 401 461 17,900 -2,022 Descending Boston Center
Fri 01:40:07 PM 43.0278 -76.7978 73° East 378 435 15,900 -2,281 Descending Boston Center
Fri 01:41:08 PM 43.0600 -76.6636 72° East 369 425 13,300 -2,438 Descending Boston Center
Fri 01:42:15 PM 43.0922 -76.5206 73° East 330 380 10,700 -2,268 Descending Boston Center
Fri 01:43:15 PM 43.1128 -76.4139 75° East 273 314 8,500 -2,035 Descending Boston Center
Fri 01:44:10 PM 43.1322 -76.3325 72° East 268 308 6,800 -1,686 Descending Boston Center
Fri 01:45:16 PM 43.1589 -76.2175 72° East 271 312 5,100 -1,039 Descending Boston Center
Fri 01:46:17 PM 43.1664 -76.1156 84° East 264 304 4,600 -516 Descending Boston Center
Fri 01:47:24 PM 43.1761 -76.0136 83° East 247 284 4,000 -298 Descending Boston Center
Fri 01:48:18 PM 43.1869 -75.9317 80° East 245 282 4,000 -365 Level Boston Center
Fri 01:49:19 PM 43.1361 -75.8831 145° Southeast 246 283 3,300 -738 Descending Boston Center
Fri 01:50:20 PM 43.0928 -75.9406 224° Southwest 212 244 2,500 -787 Descending Boston Center

Login

Don't have an account? Register now (free) for customized features, flight alerts, and more!